createdAt,value
2022-08-16T00:02:34.133Z,100187.91
2022-08-16T00:05:02.990Z,100190.63
2022-08-16T00:07:31.697Z,100190.63
2022-08-16T00:10:00.899Z,100192.38
2022-08-16T00:12:31.931Z,100184.44
2022-08-16T00:15:13.900Z,100172.16
2022-08-16T00:17:56.209Z,100171.31
2022-08-16T00:20:26.526Z,100181.09
2022-08-16T00:22:55.184Z,100184.66
2022-08-16T00:26:34.855Z,100183.84
2022-08-16T00:28:14.312Z,100190.84
2022-08-16T00:30:44.860Z,100183.84
2022-08-16T00:33:13.942Z,100184.78
2022-08-16T00:35:44.958Z,100190.00
2022-08-16T00:38:41.326Z,100190.03
2022-08-16T00:41:07.329Z,100198.88
2022-08-16T00:43:43.318Z,100198.88
2022-08-16T00:46:22.399Z,100201.50
2022-08-16T00:49:18.866Z,100202.41
2022-08-16T00:51:54.888Z,100201.53
2022-08-16T00:54:26.151Z,100195.38
2022-08-16T00:56:59.893Z,100192.81
2022-08-16T00:59:34.695Z,100198.09
2022-08-16T01:02:30.680Z,100198.16
2022-08-16T01:05:10.371Z,100201.78
2022-08-16T01:07:51.956Z,100210.63
2022-08-16T01:10:31.621Z,100217.66
2022-08-16T01:13:06.162Z,100212.41
2022-08-16T01:15:36.919Z,100209.78
2022-08-16T01:18:39.984Z,100216.88
2022-08-16T01:21:22.403Z,100224.78
2022-08-16T01:24:52.437Z,100226.50
2022-08-16T01:27:10.524Z,100228.31
2022-08-16T01:29:58.492Z,100226.59
2022-08-16T01:32:33.673Z,100238.88
2022-08-16T01:35:06.713Z,100238.16
2022-08-16T01:37:42.877Z,100240.00
2022-08-16T01:40:16.249Z,100240.06
2022-08-16T01:42:48.164Z,100243.56
2022-08-16T01:45:19.787Z,100241.81
2022-08-16T01:47:51.808Z,100244.53
2022-08-16T01:50:43.164Z,100241.91
2022-08-16T01:53:11.938Z,100239.28
2022-08-16T01:55:42.898Z,100242.81
2022-08-16T01:58:23.955Z,100239.31
2022-08-16T02:00:52.383Z,100233.13
2022-08-16T02:03:24.977Z,100230.50
2022-08-16T02:05:55.350Z,100226.09
2022-08-16T02:08:33.384Z,100230.50
2022-08-16T02:11:08.626Z,100231.41
2022-08-16T02:13:41.680Z,100234.91
2022-08-16T02:16:18.883Z,100242.84
2022-08-16T02:18:48.460Z,100244.59
2022-08-16T02:21:30.975Z,100243.72
2022-08-16T02:24:00.291Z,100248.09
2022-08-16T02:26:34.348Z,100247.19
2022-08-16T02:29:03.035Z,100255.09
2022-08-16T02:32:03.399Z,100258.56
2022-08-16T02:34:21.470Z,100249.72
2022-08-16T02:37:01.744Z,100246.19
2022-08-16T02:39:30.476Z,100252.41
2022-08-16T02:42:00.408Z,100253.28
2022-08-16T02:44:28.964Z,100257.66
2022-08-16T02:46:57.947Z,100255.91
2022-08-16T02:49:58.509Z,100247.06
2022-08-16T02:52:24.470Z,100249.72
2022-08-16T02:54:55.578Z,100249.72
2022-08-16T02:57:26.190Z,100252.41
2022-08-16T02:59:55.291Z,100256.00
2022-08-16T03:02:31.906Z,100256.88
2022-08-16T03:05:01.735Z,100257.78
2022-08-16T03:07:30.542Z,100259.47
2022-08-16T03:10:07.576Z,100260.38
2022-08-16T03:12:37.971Z,100265.69
2022-08-16T03:15:24.435Z,100268.38
2022-08-16T03:17:54.296Z,100263.13
2022-08-16T03:20:32.224Z,100264.88
2022-08-16T03:23:01.898Z,100266.72
2022-08-16T03:25:43.333Z,100273.78
2022-08-16T03:28:17.179Z,100272.06
2022-08-16T03:30:46.412Z,100273.84
2022-08-16T03:33:16.920Z,100275.56
2022-08-16T03:35:46.054Z,100272.97
2022-08-16T03:38:33.444Z,100273.84
2022-08-16T03:41:05.533Z,100267.75
2022-08-16T03:43:54.614Z,100278.31
2022-08-16T03:46:44.303Z,100270.47
2022-08-16T03:49:12.549Z,100269.59
2022-08-16T03:51:43.945Z,100267.03
2022-08-16T03:54:13.004Z,100274.84
2022-08-16T03:56:57.372Z,100269.56
2022-08-16T03:59:29.275Z,100270.47
2022-08-16T04:01:59.203Z,100280.94
2022-08-16T04:04:33.024Z,100279.22
2022-08-16T04:07:04.097Z,100286.22
2022-08-16T04:09:35.782Z,100288.03
2022-08-16T04:12:10.666Z,100288.91
2022-08-16T04:14:57.243Z,100291.50
2022-08-16T04:17:27.016Z,100290.63
2022-08-16T04:19:58.113Z,100295.03
2022-08-16T04:22:28.445Z,100300.31
2022-08-16T04:24:59.439Z,100299.44
2022-08-16T04:27:31.620Z,100298.56
2022-08-16T04:30:03.679Z,100299.41
2022-08-16T04:32:32.316Z,100302.91
2022-08-16T04:35:04.875Z,100302.03
2022-08-16T04:37:42.242Z,100308.19
2022-08-16T04:40:21.704Z,100312.56
2022-08-16T04:42:50.736Z,100306.38
2022-08-16T04:45:36.357Z,100316.91
2022-08-16T04:48:06.262Z,100314.28
2022-08-16T04:50:34.857Z,100316.03
2022-08-16T04:53:04.067Z,100314.25
2022-08-16T04:55:38.423Z,100315.09
2022-08-16T04:58:43.694Z,100322.09
2022-08-16T05:00:59.117Z,100324.72
2022-08-16T05:03:28.927Z,100325.59
2022-08-16T05:06:00.020Z,100333.50
2022-08-16T05:08:34.404Z,100329.06
2022-08-16T05:11:08.328Z,100336.00
2022-08-16T05:13:40.880Z,100324.56
2022-08-16T05:16:20.090Z,100334.16
2022-08-16T05:18:51.148Z,100334.13
2022-08-16T05:21:21.478Z,100327.94
2022-08-16T05:23:51.723Z,100328.72
2022-08-16T05:26:29.221Z,100330.44
2022-08-16T05:28:58.281Z,100333.91
2022-08-16T05:31:30.804Z,100343.50
2022-08-16T05:34:03.645Z,100346.97
2022-08-16T05:36:36.702Z,100342.56
2022-08-16T05:39:08.788Z,100342.56
2022-08-16T05:41:45.362Z,100341.69
2022-08-16T05:44:23.684Z,100338.22
2022-08-16T05:47:00.262Z,100340.03
2022-08-16T05:49:38.356Z,100341.81
2022-08-16T05:52:10.711Z,100344.31
2022-08-16T05:54:46.572Z,100346.00
2022-08-16T05:57:16.035Z,100338.88
2022-08-16T05:59:45.579Z,100342.34
2022-08-16T06:02:17.002Z,100342.31
2022-08-16T06:04:46.348Z,100341.31
2022-08-16T06:07:26.276Z,100350.91
2022-08-16T06:09:59.648Z,100350.00
2022-08-16T06:12:29.151Z,100353.44
2022-08-16T06:15:00.023Z,100357.78
2022-08-16T06:17:42.385Z,100354.25
2022-08-16T06:20:18.562Z,100348.94
2022-08-16T06:22:57.476Z,100359.44
2022-08-16T06:25:36.489Z,100365.53
2022-08-16T06:28:17.278Z,100369.00
2022-08-16T06:30:59.539Z,100372.41
2022-08-16T06:33:41.226Z,100379.38
2022-08-16T06:36:11.486Z,100379.25
2022-08-16T06:38:55.354Z,100379.25
2022-08-16T06:41:27.544Z,100391.41
2022-08-16T06:43:56.620Z,100387.75
2022-08-16T06:46:31.658Z,100392.88
2022-08-16T06:49:02.523Z,100403.41
2022-08-16T06:51:45.189Z,100403.34
2022-08-16T06:54:17.960Z,100408.56
2022-08-16T06:56:46.488Z,100407.63
2022-08-16T06:59:15.079Z,100405.78
2022-08-16T07:01:54.545Z,100406.56
2022-08-16T07:04:32.909Z,100411.78
2022-08-16T07:07:09.557Z,100408.13
2022-08-16T07:09:38.872Z,100406.31
2022-08-16T07:12:08.179Z,100412.31
2022-08-16T07:14:37.257Z,100408.75
2022-08-16T07:17:07.851Z,100413.88
2022-08-16T07:20:03.012Z,100412.91
2022-08-16T07:22:37.084Z,100415.41
2022-08-16T07:25:08.644Z,100405.59
2022-08-16T07:27:38.693Z,100404.56
2022-08-16T07:30:39.786Z,100415.56
2022-08-16T07:33:00.313Z,100419.50
2022-08-16T07:35:30.312Z,100420.28
2022-08-16T07:37:58.981Z,100432.38
2022-08-16T07:40:58.082Z,100423.34
2022-08-16T07:43:16.112Z,100427.50
2022-08-16T07:45:48.261Z,100430.91
2022-08-16T07:48:22.483Z,100433.41
2022-08-16T07:50:59.206Z,100427.13
2022-08-16T07:53:29.640Z,100435.69
2022-08-16T07:56:00.533Z,100440.69
2022-08-16T07:58:34.753Z,100442.22
2022-08-16T08:01:10.421Z,100439.53
2022-08-16T08:03:47.687Z,100437.72
2022-08-16T08:06:19.431Z,100438.38
2022-08-16T08:08:50.724Z,100434.59
2022-08-16T08:11:23.568Z,100437.97
2022-08-16T08:13:53.969Z,100437.78
2022-08-16T08:16:30.658Z,100439.41
2022-08-16T08:19:02.897Z,100444.56
2022-08-16T08:22:00.233Z,100451.59
2022-08-16T08:24:32.359Z,100455.78
2022-08-16T08:27:02.345Z,100457.25
2022-08-16T08:29:37.296Z,100461.41
2022-08-16T08:32:51.068Z,100465.53
2022-08-16T08:35:00.242Z,100467.97
2022-08-16T08:37:55.725Z,100471.13
2022-08-16T08:40:24.704Z,100463.75
2022-08-16T08:42:57.917Z,100466.13
2022-08-16T08:45:48.439Z,100465.03
2022-08-16T08:48:34.423Z,100469.97
2022-08-16T08:51:05.260Z,100469.91
2022-08-16T08:53:39.894Z,100471.56
2022-08-16T08:56:23.123Z,100479.34
2022-08-16T08:58:58.841Z,100470.16
2022-08-16T09:01:36.713Z,100478.84
2022-08-16T09:04:14.729Z,100474.28
2022-08-16T09:06:46.400Z,100480.34
2022-08-16T09:09:17.432Z,100473.97
2022-08-16T09:11:52.380Z,100473.53
2022-08-16T09:14:23.595Z,100482.31
2022-08-16T09:17:00.923Z,100478.66
2022-08-16T09:19:37.252Z,100479.41
2022-08-16T09:22:20.735Z,100482.53
2022-08-16T09:24:54.034Z,100481.56
2022-08-16T09:27:56.528Z,100475.28
2022-08-16T09:30:42.871Z,100484.59
2022-08-16T09:33:14.561Z,100480.78
2022-08-16T09:35:43.237Z,100486.88
2022-08-16T09:38:31.090Z,100480.63
2022-08-16T09:41:04.504Z,100479.13
2022-08-16T09:43:59.435Z,100473.56
2022-08-16T09:46:48.761Z,100477.69
2022-08-16T09:49:12.567Z,100471.03
2022-08-16T09:51:41.665Z,100472.69
2022-08-16T09:54:16.697Z,100472.63
2022-08-16T09:56:52.601Z,100468.22
2022-08-16T09:59:25.170Z,100469.78
2022-08-16T10:01:54.828Z,100472.25
2022-08-16T10:04:30.370Z,100465.09
2022-08-16T10:07:14.686Z,100468.28
2022-08-16T10:09:55.550Z,100474.72
2022-08-16T10:12:45.547Z,100473.16
2022-08-16T10:15:17.796Z,100473.34
2022-08-16T10:18:01.615Z,100469.38
2022-08-16T10:20:34.571Z,100461.78
2022-08-16T10:23:07.266Z,100468.81
2022-08-16T10:27:19.015Z,100463.72
2022-08-16T10:28:32.599Z,100466.81
2022-08-16T10:31:14.513Z,100463.28
2022-08-16T10:33:46.295Z,100467.09
2022-08-16T10:36:39.294Z,100462.63
2022-08-16T10:39:05.652Z,100462.16
2022-08-16T10:41:37.671Z,100460.91
2022-08-16T10:44:09.498Z,100471.56
2022-08-16T10:46:41.588Z,100467.91
2022-08-16T10:49:12.285Z,100470.06
2022-08-16T10:52:02.409Z,100458.84
2022-08-16T10:54:30.886Z,100464.72
2022-08-16T10:57:00.170Z,100472.94
2022-08-16T10:59:39.105Z,100453.44
2022-08-16T11:02:59.696Z,100458.28
2022-08-16T11:05:08.868Z,100461.13
2022-08-16T11:07:51.682Z,100457.88
2022-08-16T11:19:05.419Z,100465.03
2022-08-16T11:22:11.135Z,100460.59
2022-08-16T11:24:42.657Z,100461.41
2022-08-16T11:27:23.253Z,100455.75
2022-08-16T11:29:55.714Z,100459.88
2022-08-16T11:32:31.494Z,100475.19
2022-08-16T11:35:13.458Z,100469.63
2022-08-16T11:40:38.655Z,100460.75
2022-08-16T11:43:07.777Z,100466.81
2022-08-16T11:45:39.451Z,100462.25
2022-08-16T11:48:14.060Z,100472.19
2022-08-16T11:50:44.853Z,100466.84
2022-08-16T11:53:15.183Z,100455.97
2022-08-16T11:55:46.237Z,100472.19
2022-08-16T11:58:20.064Z,100465.97
2022-08-16T12:00:53.106Z,100460.53
2022-08-16T12:03:34.544Z,100463.25
2022-08-16T12:06:11.311Z,100455.25
2022-08-16T12:09:00.680Z,100457.72
2022-08-16T12:11:32.014Z,100454.34
2022-08-16T12:14:01.933Z,100454.72
2022-08-16T12:16:34.823Z,100457.63
2022-08-16T12:19:10.777Z,100459.69
2022-08-16T12:21:58.629Z,100454.47
2022-08-16T12:24:28.895Z,100458.81
2022-08-16T12:26:57.968Z,100459.34
2022-08-16T12:29:29.461Z,100456.75
2022-08-16T12:32:26.746Z,100463.16
2022-08-16T12:34:53.143Z,100459.38
2022-08-16T12:37:24.194Z,100456.09
2022-08-16T12:39:55.017Z,100460.25
2022-08-16T12:42:34.421Z,100458.91
2022-08-16T12:45:05.940Z,100458.06
2022-08-16T12:47:55.118Z,100454.44
2022-08-16T12:50:33.395Z,100449.56
2022-08-16T12:53:03.490Z,100452.19
2022-08-16T12:55:33.568Z,100447.75
2022-08-16T12:58:13.896Z,100445.19
2022-08-16T13:00:59.168Z,100454.88
2022-08-16T13:03:28.941Z,100458.38
2022-08-16T13:06:02.671Z,100449.69
2022-08-16T13:08:33.440Z,100452.84
2022-08-16T13:11:03.622Z,100455.94
2022-08-16T13:13:34.032Z,100448.25
2022-08-16T13:16:15.405Z,100442.53
2022-08-16T13:18:51.684Z,100439.28
2022-08-16T13:21:24.217Z,100443.75
2022-08-16T13:23:55.584Z,100448.44
2022-08-16T13:26:26.197Z,100447.75
2022-08-16T13:28:55.407Z,100451.69
2022-08-16T13:31:24.319Z,100453.75
2022-08-16T13:33:58.886Z,100457.56
2022-08-16T13:36:48.518Z,100457.56
2022-08-16T13:39:18.217Z,100459.03
2022-08-16T13:41:53.482Z,100455.56
2022-08-16T13:44:48.915Z,100446.75
2022-08-16T13:47:11.745Z,100440.63
2022-08-16T13:49:43.392Z,100450.38
2022-08-16T13:52:14.119Z,100444.38
2022-08-16T13:54:42.614Z,100439.28
2022-08-16T13:57:11.558Z,100451.38
2022-08-16T13:59:40.992Z,100440.94
2022-08-16T14:02:11.373Z,100437.91
2022-08-16T14:04:42.377Z,100444.69
2022-08-16T14:07:19.910Z,100441.84
2022-08-16T14:09:55.082Z,100440.34
2022-08-16T14:12:27.481Z,100443.03
2022-08-16T14:14:57.486Z,100436.44
2022-08-16T14:17:28.477Z,100447.25
2022-08-16T14:20:00.041Z,100441.22
2022-08-16T14:22:35.991Z,100442.66
2022-08-16T14:25:16.338Z,100436.41
2022-08-16T14:27:45.326Z,100440.78
2022-08-16T14:30:16.212Z,100440.53
2022-08-16T14:32:49.720Z,100444.91
2022-08-16T14:35:36.686Z,100445.47
2022-08-16T14:38:18.618Z,100446.28
2022-08-16T14:40:52.700Z,100440.78
2022-08-16T14:43:24.013Z,100443.72
2022-08-16T14:45:54.971Z,100438.97
2022-08-16T14:48:26.284Z,100433.06
2022-08-16T14:50:56.070Z,100431.16
2022-08-16T14:53:28.016Z,100437.38
2022-08-16T14:55:57.133Z,100439.47
2022-08-16T14:58:34.489Z,100428.44
2022-08-16T15:01:05.970Z,100442.44
2022-08-16T15:03:37.554Z,100431.63
2022-08-16T15:06:08.546Z,100434.09
2022-08-16T15:08:45.798Z,100432.13
2022-08-16T15:11:14.500Z,100426.94
2022-08-16T15:13:46.085Z,100427.16
2022-08-16T15:16:16.636Z,100430.19
2022-08-16T15:18:46.434Z,100434.19
2022-08-16T15:21:15.399Z,100432.00
2022-08-16T15:23:45.193Z,100426.19
2022-08-16T15:26:22.258Z,100429.25
2022-08-16T15:29:02.100Z,100427.31
2022-08-16T15:31:32.674Z,100417.81
2022-08-16T15:34:04.337Z,100423.50
2022-08-16T15:36:32.782Z,100428.47
2022-08-16T15:39:37.157Z,100424.25
2022-08-16T15:42:02.805Z,100436.25
2022-08-16T15:44:45.101Z,100435.59
2022-08-16T15:47:25.671Z,100424.25
2022-08-16T15:49:56.129Z,100428.19
2022-08-16T15:52:29.171Z,100421.78
2022-08-16T15:55:13.103Z,100426.75
2022-08-16T15:57:51.195Z,100432.13
2022-08-16T16:00:21.212Z,100437.09
2022-08-16T16:02:50.321Z,100433.84
2022-08-16T16:05:20.288Z,100434.41
2022-08-16T16:07:56.922Z,100440.75
2022-08-16T16:10:39.393Z,100438.41
2022-08-16T16:13:09.078Z,100443.00
2022-08-16T16:15:43.218Z,100436.31
2022-08-16T16:18:13.281Z,100445.50
2022-08-16T16:20:46.324Z,100444.53
2022-08-16T16:23:16.875Z,100436.94
2022-08-16T16:25:47.241Z,100433.94
2022-08-16T16:29:05.989Z,100440.59
2022-08-16T16:31:12.353Z,100431.28
2022-08-16T16:33:44.441Z,100430.97
2022-08-16T16:36:19.575Z,100438.56
2022-08-16T16:38:50.515Z,100443.25
2022-08-16T16:41:24.501Z,100443.34
2022-08-16T16:43:56.093Z,100444.66
2022-08-16T16:46:41.212Z,100446.88
2022-08-16T16:49:14.696Z,100449.88
2022-08-16T16:51:50.011Z,100449.28
2022-08-16T16:54:27.781Z,100443.94
2022-08-16T16:56:59.243Z,100456.56
2022-08-16T16:59:28.752Z,100452.22
2022-08-16T17:02:38.890Z,100454.22
2022-08-16T17:04:48.619Z,100456.38
2022-08-16T17:07:17.502Z,100457.56
2022-08-16T17:09:49.169Z,100464.97
2022-08-16T17:12:24.698Z,100467.34
2022-08-16T17:15:08.936Z,100470.09
2022-08-16T17:18:00.098Z,100472.78
2022-08-16T17:20:30.341Z,100467.66
2022-08-16T17:22:59.125Z,100471.28
2022-08-16T17:25:35.061Z,100466.22
2022-08-16T17:28:58.086Z,100475.53
2022-08-16T17:30:56.257Z,100479.66
2022-08-16T17:33:24.764Z,100473.88
2022-08-16T17:38:44.001Z,100478.00
2022-08-16T17:39:28.203Z,100474.06
2022-08-16T17:41:16.317Z,100483.66
2022-08-16T17:43:46.300Z,100486.66
2022-08-16T17:46:50.770Z,100487.75
2022-08-16T17:49:05.508Z,100487.75
2022-08-16T17:51:34.327Z,100497.69
2022-08-16T17:54:03.705Z,100482.91
2022-08-16T17:56:32.861Z,100493.19
2022-08-16T17:59:02.797Z,100489.38
2022-08-16T18:01:31.603Z,100497.03
2022-08-16T18:04:07.445Z,100496.88
2022-08-16T18:06:38.539Z,100492.72
2022-08-16T18:09:07.818Z,100492.28
2022-08-16T18:11:41.179Z,100496.03
2022-08-16T18:14:13.314Z,100495.00
2022-08-16T18:16:41.995Z,100506.13
2022-08-16T18:19:11.279Z,100506.66
2022-08-16T18:21:57.085Z,100503.59
2022-08-16T18:24:28.390Z,100499.75
2022-08-16T18:26:57.117Z,100508.34
2022-08-16T18:29:48.671Z,100510.66
2022-08-16T18:32:21.897Z,100509.34
2022-08-16T18:34:54.144Z,100508.91
2022-08-16T18:37:23.347Z,100514.66
2022-08-16T18:39:52.149Z,100514.16
2022-08-16T18:42:21.014Z,100521.47
2022-08-16T18:44:51.154Z,100524.41
2022-08-16T18:47:19.644Z,100522.09
2022-08-16T18:49:48.293Z,100530.25
2022-08-16T18:52:25.040Z,100523.41
2022-08-16T18:55:02.316Z,100527.25
2022-08-16T18:57:31.780Z,100528.38
2022-08-16T19:00:01.692Z,100528.66
2022-08-16T19:02:57.644Z,100529.75
2022-08-16T19:05:22.939Z,100536.25
2022-08-16T19:07:52.604Z,100540.88
2022-08-16T19:10:21.673Z,100537.66
2022-08-16T19:12:50.371Z,100544.97
2022-08-16T19:15:23.608Z,100542.50
2022-08-16T19:17:52.267Z,100544.47
2022-08-16T19:20:22.656Z,100547.31
2022-08-16T19:23:05.404Z,100551.91
2022-08-16T19:25:48.776Z,100552.94
2022-08-16T19:28:50.896Z,100548.66
2022-08-16T19:31:16.291Z,100549.00
2022-08-16T19:33:54.223Z,100549.25
2022-08-16T19:36:32.084Z,100550.38
2022-08-16T19:39:04.933Z,100559.34
2022-08-16T19:41:36.357Z,100556.09
2022-08-16T19:44:06.980Z,100567.84
2022-08-16T19:46:38.276Z,100572.56
2022-08-16T19:49:06.886Z,100567.53
2022-08-16T19:51:35.488Z,100569.59
2022-08-16T19:54:06.256Z,100571.66
2022-08-16T19:56:34.751Z,100572.75
2022-08-16T19:59:21.062Z,100567.63
2022-08-16T20:01:52.787Z,100568.78
2022-08-16T20:04:22.396Z,100573.38
2022-08-16T20:06:52.291Z,100575.34
2022-08-16T20:09:21.817Z,100576.44
2022-08-16T20:11:52.105Z,100579.28
2022-08-16T20:14:25.222Z,100573.34
2022-08-16T20:16:58.795Z,100580.66
2022-08-16T20:19:28.932Z,100582.66
2022-08-16T20:22:01.042Z,100583.75
2022-08-16T20:24:34.622Z,100579.47
2022-08-16T20:27:04.675Z,100584.06
2022-08-16T20:29:33.068Z,100589.47
2022-08-16T20:32:02.932Z,100593.13
2022-08-16T20:34:31.692Z,100592.34
2022-08-16T20:37:00.131Z,100599.47
2022-08-16T20:39:28.874Z,100591.59
2022-08-16T20:41:57.770Z,100583.78
2022-08-16T20:44:26.234Z,100595.25
2022-08-16T20:46:54.840Z,100590.03
2022-08-16T20:49:24.701Z,100594.44
2022-08-16T20:51:57.397Z,100598.88
2022-08-16T20:54:29.469Z,100596.41
2022-08-16T20:56:57.933Z,100597.13
2022-08-16T20:59:26.408Z,100601.69
2022-08-16T21:01:54.964Z,100593.75
2022-08-16T21:04:27.712Z,100586.75
2022-08-16T21:06:58.423Z,100590.28
2022-08-16T21:09:31.408Z,100590.38
2022-08-16T21:12:03.116Z,100593.03
2022-08-16T21:14:33.903Z,100585.13
2022-08-16T21:17:03.035Z,100593.16
2022-08-16T21:19:33.839Z,100584.41
2022-08-16T21:22:11.870Z,100589.72
2022-08-16T21:24:40.417Z,100588.81
2022-08-16T21:27:09.324Z,100585.34
2022-08-16T21:29:43.093Z,100581.84
2022-08-16T21:32:14.853Z,100586.31
2022-08-16T21:34:44.796Z,100597.91
2022-08-16T21:37:15.611Z,100588.25
2022-08-16T21:39:44.645Z,100588.31
2022-08-16T21:42:17.225Z,100591.00
2022-08-16T21:44:46.270Z,100588.47
2022-08-16T21:47:14.697Z,100592.06
2022-08-16T21:49:44.549Z,100597.50
2022-08-16T21:52:26.119Z,100593.22
2022-08-16T21:54:57.538Z,100589.81
2022-08-16T21:57:26.465Z,100589.06
2022-08-16T22:00:11.149Z,100598.84
2022-08-16T22:02:41.323Z,100596.28
2022-08-16T22:05:11.251Z,100597.22
2022-08-16T22:07:39.646Z,100603.34
2022-08-16T22:11:05.916Z,100612.28
2022-08-16T22:12:57.832Z,100607.09
2022-08-16T22:15:26.773Z,100599.25
2022-08-16T22:17:57.892Z,100615.25
2022-08-16T22:20:30.369Z,100607.44
2022-08-16T22:23:06.699Z,100617.28
2022-08-16T22:25:35.163Z,100616.53
2022-08-16T22:28:04.333Z,100623.66
2022-08-16T22:30:32.852Z,100621.06
2022-08-16T22:33:02.059Z,100624.59
2022-08-16T22:38:47.823Z,100630.00
2022-08-16T22:40:49.304Z,100630.94
2022-08-16T22:43:18.325Z,100626.56
2022-08-16T22:45:46.771Z,100631.88
2022-08-16T22:48:17.337Z,100638.09
2022-08-16T22:50:47.778Z,100632.81
2022-08-16T22:53:16.281Z,100631.97
2022-08-16T22:55:44.808Z,100626.75
2022-08-16T22:58:13.856Z,100631.25
2022-08-16T23:00:44.149Z,100641.00
2022-08-16T23:03:16.379Z,100625.22
2022-08-16T23:05:49.304Z,100630.50
2022-08-16T23:08:39.510Z,100628.75
2022-08-16T23:11:10.100Z,100629.69
2022-08-16T23:13:52.805Z,100619.22
2022-08-16T23:16:25.051Z,100620.13
2022-08-16T23:19:03.467Z,100630.78
2022-08-16T23:21:34.176Z,100622.00
2022-08-16T23:24:03.037Z,100622.06
2022-08-16T23:26:46.369Z,100616.88
2022-08-16T23:29:23.607Z,100618.66
2022-08-16T23:31:58.372Z,100630.28
2022-08-16T23:34:29.508Z,100616.28
2022-08-16T23:36:59.617Z,100620.75
2022-08-16T23:39:28.075Z,100613.78
2022-08-16T23:41:56.798Z,100620.84
2022-08-16T23:44:44.249Z,100613.84
2022-08-16T23:47:13.812Z,100601.59
2022-08-16T23:49:58.569Z,100605.03
2022-08-16T23:52:38.441Z,100601.50
2022-08-16T23:55:20.536Z,100603.34
2022-08-16T23:57:49.655Z,100600.75
